Hlavní strana
METAR-TAF:

METAR-TAF

Letiště :

Curaçao, Nizozemské Antily

zeměpisná šířka: 12-12N, zeměpisná délka: 068-58W, výška: 9 m

Aktuální stav počasí

Zpráva byla vytvořena před 39 minutami, v 09:00 UTC
Východojihovýchodní vítr 6 kt
Teplota 25°C
Vlhkost vzduchu 83%
Tlak 1012 hPa
Viditelnost 10 km a více

METAR: TNCC 160900Z AUTO 12006KT 9999 NCD 25/22 Q1012 NOSIG

Čas: 05:39 (09:39 UTC)

Předpověď počasí

Zpráva byla vytvořena před 5 hodinami a 39 minutami, v 04:00 UTC
Předpověď platná od 16 v 06 UTC do 17 v 06 UTC
Východojihovýchodní vítr 8 kt
Viditelnost 10 km a více
Polojasno ve výšce 1800 ft
Dočasný
od 16 v 08 UTC do 16 v 14 UTC
Oblačno až skoro zataženo ve výšce 1400 ft
Změna
od 16 v 12 UTC do 16 v 14 UTC
Východní vítr 14 kt

TAF: TNCC 160400Z 1606/1706 11008KT 9999 SCT018 TEMPO 1608/1614 BKN014 BECMG 1612/1614 10014KT

Stav a předpovědi počasí z více než 4 000 letišť (zprávy METAR a TAF).

Červené a žluté tečky na mapě představují dostupné meteorologické stanice.

Když kurzor umístíte na tečku, zobrazí se název stanice.

Pak kliknutím zobrazíte stav a předpověď počasí.

Chcete-li změnit mapu, kliknutím na zelené tlačítko se znaménkem +mapu přiblížíte, kliknutím na zelené tlačítko se znaménkem – mapu oddálíte a kliknutím na zelené šipky přejdete na sousední mapy.


METAR-TAF: